createdAt,value
2022-12-08T00:01:21.107Z,5.15
2022-12-08T00:11:45.579Z,5.10
2022-12-08T00:22:08.340Z,5.45
2022-12-08T00:32:31.612Z,4.80
2022-12-08T00:42:53.134Z,6.35
2022-12-08T00:53:15.964Z,5.93
2022-12-08T01:03:37.388Z,6.75
2022-12-08T01:14:00.628Z,2.63
2022-12-08T01:24:22.617Z,3.08
2022-12-08T01:34:45.779Z,4.47
2022-12-08T01:45:08.977Z,6.05
2022-12-08T01:55:36.368Z,7.47
2022-12-08T02:05:59.385Z,6.57
2022-12-08T02:16:36.366Z,4.93
2022-12-08T02:27:29.146Z,6.15
2022-12-08T02:38:00.554Z,5.00
2022-12-08T02:48:22.488Z,6.75
2022-12-08T02:59:02.487Z,5.60
2022-12-08T03:09:34.885Z,5.60
2022-12-08T03:20:01.115Z,5.22
2022-12-08T03:30:23.031Z,4.57
2022-12-08T03:41:07.920Z,6.85
2022-12-08T03:51:29.748Z,4.97
2022-12-08T04:01:52.873Z,6.70
2022-12-08T04:12:14.513Z,7.45
2022-12-08T04:22:37.353Z,7.65
2022-12-08T04:32:58.903Z,9.32
2022-12-08T04:43:22.021Z,12.05
2022-12-08T04:53:46.754Z,12.68
2022-12-08T05:04:10.297Z,12.98
2022-12-08T05:14:32.549Z,11.63
2022-12-08T05:24:55.504Z,15.00
2022-12-08T05:35:17.116Z,10.30
2022-12-08T05:45:40.130Z,13.40
2022-12-08T05:56:01.397Z,12.85
2022-12-08T06:06:24.025Z,9.30
2022-12-08T06:16:45.434Z,14.20
2022-12-08T06:27:08.262Z,15.30
2022-12-08T06:37:30.029Z,11.63
2022-12-08T06:47:53.049Z,13.25
2022-12-08T06:58:15.788Z,14.88
2022-12-08T07:08:38.865Z,12.30
2022-12-08T07:19:00.900Z,10.27
2022-12-08T07:29:26.321Z,11.13
2022-12-08T07:39:47.786Z,13.18
2022-12-08T07:50:11.127Z,12.05
2022-12-08T08:00:32.959Z,17.65
2022-12-08T08:10:56.238Z,12.52
2022-12-08T08:32:01.574Z,25.67
2022-12-08T08:42:23.226Z,16.48
2022-12-08T08:52:46.038Z,17.33
2022-12-08T09:03:07.570Z,15.20
2022-12-08T09:13:30.758Z,18.48
2022-12-08T09:23:54.305Z,13.30
2022-12-08T09:34:17.113Z,12.02
2022-12-08T09:44:57.390Z,19.73
2022-12-08T09:55:26.097Z,12.80
2022-12-08T10:05:56.435Z,10.90
2022-12-08T10:16:29.497Z,12.23
2022-12-08T10:27:16.835Z,11.63
2022-12-08T10:37:40.507Z,14.85
2022-12-08T10:48:04.374Z,13.05
2022-12-08T10:58:29.896Z,12.05
2022-12-08T11:08:54.181Z,10.35
2022-12-08T11:19:19.504Z,7.35
2022-12-08T11:29:41.122Z,10.60
2022-12-08T11:40:08.113Z,14.45
2022-12-08T11:50:36.852Z,11.40
2022-12-08T12:01:00.130Z,13.45
2022-12-08T12:11:47.068Z,10.20
2022-12-08T12:22:16.497Z,10.63
2022-12-08T12:32:46.805Z,8.32
2022-12-08T12:43:30.111Z,9.77
2022-12-08T12:53:52.139Z,10.02
2022-12-08T13:04:16.221Z,13.05
2022-12-08T13:14:42.164Z,9.98
2022-12-08T13:25:37.193Z,12.20
2022-12-08T13:36:11.759Z,12.10
2022-12-08T13:57:28.923Z,14.05
2022-12-08T14:07:54.579Z,13.20
2022-12-08T14:18:26.769Z,13.33
2022-12-08T14:28:50.570Z,12.35
2022-12-08T14:39:13.742Z,13.63
2022-12-08T14:49:36.891Z,16.95
2022-12-08T15:00:09.195Z,2.70
2022-12-08T15:10:32.051Z,5.32
2022-12-08T15:20:58.107Z,8.95
2022-12-08T15:31:20.277Z,8.73
2022-12-08T15:41:43.311Z,7.55
2022-12-08T15:52:11.624Z,2.72
2022-12-08T16:03:04.321Z,10.50
2022-12-08T16:13:56.856Z,11.77
2022-12-08T16:24:18.861Z,9.77
2022-12-08T16:34:40.482Z,12.80
2022-12-08T16:45:07.953Z,12.13
2022-12-08T16:55:30.198Z,12.40
2022-12-08T17:05:53.509Z,8.93
2022-12-08T17:16:17.666Z,10.45
2022-12-08T17:26:40.664Z,15.10
2022-12-08T17:37:02.637Z,11.88
2022-12-08T17:47:25.655Z,12.02
2022-12-08T17:57:47.441Z,16.75
2022-12-08T18:08:10.993Z,12.13
2022-12-08T18:18:32.767Z,12.50
2022-12-08T18:28:55.997Z,13.30
2022-12-08T18:39:22.593Z,15.55
2022-12-08T18:49:45.641Z,17.37
2022-12-08T19:00:10.677Z,13.40
2022-12-08T19:10:37.053Z,20.95
2022-12-08T19:20:59.604Z,16.48
2022-12-08T19:31:22.384Z,19.52
2022-12-08T19:42:01.303Z,27.17
2022-12-08T19:52:24.588Z,17.17
2022-12-08T20:02:46.340Z,24.08
2022-12-08T20:13:27.915Z,26.25
2022-12-08T20:23:49.813Z,27.63
2022-12-08T20:34:16.180Z,23.65
2022-12-08T20:44:43.150Z,18.27
2022-12-08T20:55:07.886Z,20.92
2022-12-08T21:05:29.730Z,18.45
2022-12-08T21:15:53.358Z,18.35
2022-12-08T21:26:16.644Z,20.45
2022-12-08T21:36:39.801Z,15.85
2022-12-08T21:47:01.680Z,23.13
2022-12-08T21:57:24.620Z,27.27
2022-12-08T22:07:46.216Z,24.50
2022-12-08T22:18:09.305Z,28.70
2022-12-08T22:28:33.535Z,23.40
2022-12-08T22:38:57.077Z,25.92
2022-12-08T22:49:19.006Z,26.65
2022-12-08T22:59:41.984Z,25.58
2022-12-08T23:10:04.037Z,22.30
2022-12-08T23:20:27.622Z,19.85
2022-12-08T23:30:49.276Z,26.35
2022-12-08T23:41:14.247Z,22.25
2022-12-08T23:51:36.403Z,22.13
